Latest Weather Observations for Cessnock Airport

IDN60801

Issued at 12:23 pm EST Tuesday 21 September 2021 (issued every 10 minutes, with the page automatically refreshed every 10 minutes)

About weather observations | Map of weather stations | Latest weather observations for NSW | Other Formats
Station Details ID: 061260 Name: CESSNOCK AIRPORT AWS Lat: -32.79 Lon: 151.34 Height: 66.53 m
Data from the previous 72 hours. | See also: Recent months at Cessnock Airport
Date/Time
EST
Temp
°C
App
Temp
°C
Dew
Point
°C
Rel
Hum
%
Delta-T
°C
Wind Press
QNH
hPa
Press
MSL
hPa
Rain since
9am
mm
Dir  Spd
km/h
Gust
km/h
Spd
kts
Gust
kts
21/12:00pm 15.1 10.0 -1.9 31 6.9 S 15 26 8 14 1016.0 1015.9 0.0
21/11:30am 14.7 9.1 -2.7 30 6.9 S 17 24 9 13 1016.0 1015.9 0.0
21/11:00am 14.8 9.7 -2.1 31 6.8 SW 15 28 8 15 1015.9 1015.8 0.0
21/10:30am 13.6 7.6 -3.2 31 6.5 SW 19 30 10 16 1015.9 1015.8 0.0
21/10:00am 14.2 8.1 -3.6 29 6.9 SW 19 32 10 17 1015.8 1015.7 0.0
21/09:30am 12.5 6.6 -2.5 35 5.9 SW 19 28 10 15 1015.8 1015.7 0.0
21/09:00am 12.1 6.6 -1.8 38 5.5 SW 17 24 9 13 1015.5 1015.4 0.0
21/08:30am 13.5 9.0 -0.5 38 5.8 WSW 13 28 7 15 1015.2 1015.1 0.0
21/08:00am 12.2 7.7 -0.3 42 5.1 WSW 13 32 7 17 1015.0 1014.9 0.0
21/07:30am 11.9 6.5 1.0 47 4.6 WSW 19 28 10 15 1014.6 1014.5 0.0
21/07:00am 10.6 8.3 4.7 67 2.7 WSW 6 13 3 7 1014.5 1014.4 0.0
21/06:30am 7.6 4.8 2.9 72 2.0 WSW 7 9 4 5 1014.0 1013.9 0.0
21/06:00am 7.0 5.4 2.7 74 1.8 CALM 0 6 0 3 1013.6 1013.5 0.0
21/05:30am 8.1 6.4 2.1 66 2.5 CALM 0 0 0 0 1013.4 1013.3 0.0
21/05:00am 10.7 7.2 1.5 53 3.9 WSW 9 15 5 8 1013.2 1013.1 0.0
21/04:30am 10.7 7.2 1.5 53 3.9 W 9 17 5 9 1012.8 1012.8 0.0
21/04:00am 10.6 7.6 1.9 55 3.7 WNW 7 11 4 6 1012.9 1012.9 0.0
21/03:30am 11.2 7.8 1.7 52 4.0 W 9 15 5 8 1012.8 1012.8 0.0
21/03:00am 11.4 7.6 1.6 51 4.2 W 11 20 6 11 1012.8 1012.8 0.0
21/02:30am 12.1 7.9 1.4 48 4.5 W 13 19 7 10 1013.1 1013.0 0.0
21/02:00am 12.2 8.7 1.5 48 4.6 WNW 9 17 5 9 1013.3 1013.2 0.0
21/01:30am 12.4 8.6 1.7 48 4.6 NW 11 17 6 9 1013.2 1013.1 0.0
21/01:00am 12.2 8.5 2.1 50 4.4 NW 11 19 6 10 1013.3 1013.2 0.0
21/12:30am 11.9 8.6 2.4 52 4.1 WNW 9 15 5 8 1012.8 1012.8 0.0
21/12:00am 12.9 9.2 2.5 49 4.6 NNW 11 19 6 10 1014.0 1013.9 0.0
 
Date/Time
EST
Temp
°C
App
Temp
°C
Dew
Point
°C
Rel
Hum
%
Delta-T
°C
Wind Press
QNH
hPa
Press
MSL
hPa
Rain since
9am
mm
Dir  Spd
km/h
Gust
km/h
Spd
kts
Gust
kts
20/11:30pm 14.0 7.8 -0.1 38 5.9 WSW 22 37 12 20 1012.9 1012.9 0.0
20/11:03pm 14.5 6.5 0.4 38 6.0 SW 32 50 17 27 1012.0 1012.0 0.0
20/11:00pm 14.5 6.9 0.7 39 5.9 SW 30 46 16 25 1012.2 1012.2 0.0
20/10:56pm 14.6 7.4 0.8 39 5.9 SW 28 46 15 25 1012.2 1012.2 0.0
20/10:30pm 15.6 9.7 1.4 38 6.2 SW 22 39 12 21 1012.1 1012.1 0.0
20/10:02pm 17.5 10.6 2.7 37 6.8 SW 28 52 15 28 1011.7 1011.7 0.0
20/10:00pm 17.6 11.1 2.8 37 6.8 SW 26 52 14 28 1011.6 1011.6 0.0
20/09:30pm 18.1 12.9 3.6 38 6.8 SW 20 35 11 19 1011.3 1011.3 0.0
20/09:00pm 14.9 11.5 1.8 41 5.8 SW 9 20 5 11 1010.9 1010.9 0.0
20/08:30pm 12.8 10.0 2.1 48 4.6 W 6 7 3 4 1010.1 1010.1 0.0
20/08:00pm 15.6 12.3 0.2 35 6.6 WNW 7 9 4 5 1010.2 1010.2 0.0
20/07:30pm 17.3 13.3 -2.4 26 8.1 NW 9 13 5 7 1010.1 1010.1 0.0
20/07:00pm 20.3 16.1 -4.0 19 10.0 WNW 9 17 5 9 1010.2 1010.2 0.0
20/06:30pm 21.6 16.2 -4.5 17 10.7 WNW 15 22 8 12 1009.9 1009.9 0.0
20/06:00pm 22.2 16.4 -4.8 16 11.1 W 17 32 9 17 1009.7 1009.7 0.0
20/05:30pm 22.9 16.7 -5.1 15 11.5 WNW 19 30 10 16 1009.5 1009.5 0.0
20/05:00pm 24.2 16.6 -5.9 13 12.4 WNW 26 46 14 25 1009.0 1009.0 0.0
20/04:30pm 24.9 17.3 -5.4 13 12.6 WNW 26 41 14 22 1008.8 1008.8 0.0
20/04:03pm 25.0 16.9 -6.3 12 12.8 NW 28 48 15 26 1008.6 1008.6 0.0
20/04:00pm 25.1 17.3 -4.2 14 12.5 NW 28 44 15 24 1008.7 1008.7 0.0
20/03:30pm 25.4 17.4 -6.0 12 13.0 NW 28 46 15 25 1008.6 1008.6 0.0
20/03:12pm 25.6 16.6 -8.2 10 13.5 WNW 32 52 17 28 1008.8 1008.8 0.0
20/03:10pm 25.6 17.1 -7.0 11 13.3 WNW 30 52 16 28 1008.8 1008.8 0.0
20/03:00pm 25.7 17.3 -5.8 12 13.2 NW 30 50 16 27 1008.9 1008.9 0.0
20/02:39pm 25.7 17.6 -6.9 11 13.3 WNW 28 46 15 25 1009.1 1009.1 0.0
20/02:30pm 26.2 18.6 -5.4 12 13.3 WNW 26 46 14 25 1009.2 1009.2 0.0
20/02:06pm 25.5 17.4 -7.1 11 13.2 WNW 28 50 15 27 1009.5 1009.5 0.0
20/02:00pm 25.8 18.3 -4.7 13 13.0 WNW 26 54 14 29 1009.8 1009.8 0.0
20/01:30pm 25.7 17.8 -4.7 13 12.9 WNW 28 54 15 29 1010.5 1010.5 0.0
20/01:21pm 25.3 17.3 -6.1 12 13.0 WNW 28 54 15 29 1010.6 1010.6 0.0
20/01:00pm 25.2 17.1 -3.2 15 12.4 WNW 30 44 16 24 1011.0 1011.0 0.0
20/12:30pm 24.5 15.9 -3.8 15 12.1 WNW 32 52 17 28 1011.8 1011.8 0.0
20/12:05pm 24.4 16.6 -3.9 15 12.1 WNW 28 50 15 27 1012.3 1012.3 0.0
20/12:00pm 24.4 17.2 -2.2 17 11.7 WNW 26 43 14 23 1012.5 1012.5 0.0
20/11:30am 23.8 18.1 2.6 25 10.2 NW 22 39 12 21 1013.5 1013.4 0.0
20/11:00am 22.3 16.6 2.9 28 9.3 NW 22 35 12 19 1014.3 1014.2 0.0
20/10:30am 22.0 16.6 4.6 32 8.6 NNW 22 32 12 17 1014.9 1014.8 0.0
20/10:00am 20.7 15.0 3.0 31 8.4 NW 22 37 12 20 1015.5 1015.4 0.0
20/09:30am 20.3 15.3 3.5 33 8.0 NNW 19 30 10 16 1016.1 1016.0 0.0
20/09:00am 18.3 13.9 4.5 40 6.6 NNW 17 22 9 12 1016.4 1016.3 0.0
20/08:30am 17.1 12.5 3.8 41 6.2 NNW 17 24 9 13 1016.8 1016.7 0.0
20/08:00am 15.7 11.6 4.1 46 5.4 NNW 15 22 8 12 1017.0 1016.9 0.0
20/07:30am 14.6 10.8 3.7 48 5.0 NW 13 20 7 11 1017.0 1016.9 0.0
20/07:00am 13.2 9.0 3.6 52 4.3 NW 15 20 8 11 1016.9 1016.8 0.0
20/06:30am 12.0 7.3 3.3 55 3.9 NW 17 24 9 13 1016.7 1016.6 0.0
20/06:00am 12.3 7.9 2.7 52 4.2 NW 15 20 8 11 1016.5 1016.4 0.0
20/05:30am 12.6 8.2 2.5 50 4.4 NW 15 20 8 11 1016.6 1016.5 0.0
20/05:00am 13.1 8.4 2.9 50 4.5 NW 17 24 9 13 1016.7 1016.6 0.0
20/04:30am 12.6 7.9 3.3 53 4.1 NW 17 28 9 15 1016.8 1016.7 0.0
20/04:00am 12.6 8.4 5.5 62 3.3 WNW 17 30 9 16 1016.9 1016.8 0.0
20/03:50am 10.1 8.0 8.2 88 0.9 NW 9 22 5 12 1016.9 1016.8 0.0
20/03:30am 3.9 1.6 2.9 93 0.4 S 4 11 2 6 1017.1 1017.0 0.0
20/03:00am 4.2 2.7 3.2 93 0.4 CALM 0 0 0 0 1017.4 1017.3 0.0
20/02:30am 4.3 2.8 3.0 91 0.5 CALM 0 0 0 0 1018.0 1017.9 0.0
20/02:00am 4.8 3.3 3.0 88 0.7 CALM 0 0 0 0 1018.4 1018.3 0.0
20/01:30am 5.3 3.8 3.2 86 0.9 CALM 0 0 0 0 1018.6 1018.5 0.0
20/01:00am 5.8 4.3 3.1 83 1.1 CALM 0 0 0 0 1018.9 1018.8 0.0
20/12:30am 6.9 5.5 3.5 79 1.4 CALM 0 0 0 0 1019.2 1019.1 0.0
20/12:00am 7.4 6.0 3.5 76 1.7 CALM 0 0 0 0 1019.5 1019.4 0.0
 
Date/Time
EST
Temp
°C
App
Temp
°C
Dew
Point
°C
Rel
Hum
%
Delta-T
°C
Wind Press
QNH
hPa
Press
MSL
hPa
Rain since
9am
mm
Dir  Spd
km/h
Gust
km/h
Spd
kts
Gust
kts
19/11:30pm 9.3 7.8 3.1 65 2.7 CALM 0 0 0 0 1019.4 1019.3 0.0
19/11:00pm 9.8 7.9 2.9 62 3.0 NNE 2 9 1 5 1019.4 1019.3 0.0
19/10:30pm 10.0 7.1 2.6 60 3.2 NNE 7 9 4 5 1019.3 1019.2 0.0
19/10:00pm 11.7 10.1 2.7 54 3.9 CALM 0 0 0 0 1019.2 1019.1 0.0
19/09:30pm 11.5 9.2 3.0 56 3.7 NNW 4 13 2 7 1019.2 1019.1 0.0
19/09:00pm 12.0 10.4 2.2 51 4.2 CALM 0 0 0 0 1019.2 1019.1 0.0
19/08:30pm 12.8 11.1 1.8 47 4.7 CALM 0 6 0 3 1019.3 1019.2 0.0
19/08:00pm 13.2 9.9 0.3 41 5.4 N 7 13 4 7 1019.3 1019.2 0.0
19/07:30pm 15.3 12.0 0.3 36 6.4 NNW 7 13 4 7 1019.1 1019.0 0.0
19/07:00pm 16.5 13.2 -0.2 32 7.1 NNW 7 15 4 8 1018.8 1018.7 0.0
19/06:30pm 18.0 14.2 -0.8 28 8.0 WNW 9 15 5 8 1018.5 1018.4 0.0
19/06:00pm 19.7 14.7 -0.9 25 8.9 NW 15 26 8 14 1018.3 1018.2 0.0
19/05:30pm 20.8 15.8 -1.1 23 9.6 NW 15 22 8 12 1018.0 1017.9 0.0
19/05:00pm 22.2 16.2 -1.8 20 10.4 NW 20 32 11 17 1017.8 1017.7 0.0
19/04:30pm 22.8 16.9 -2.0 19 10.8 NW 19 33 10 18 1017.6 1017.5 0.0
19/04:00pm 23.1 17.6 0.9 23 10.2 NW 19 30 10 16 1017.5 1017.4 0.0
19/03:30pm 23.1 17.2 1.5 24 10.1 NW 22 35 12 19 1017.6 1017.5 0.0
19/03:00pm 22.9 17.3 1.3 24 10.0 NW 20 32 11 17 1017.8 1017.7 0.0
19/02:30pm 22.7 17.2 1.7 25 9.8 NW 20 33 11 18 1018.3 1018.2 0.0
19/02:00pm 22.5 17.4 3.1 28 9.3 NNW 19 32 10 17 1018.7 1018.6 0.0
19/01:30pm 21.8 16.6 2.5 28 9.1 NW 19 32 10 17 1019.2 1019.1 0.0
19/01:00pm 21.4 16.8 3.6 31 8.5 NW 17 35 9 19 1019.6 1019.5 0.0
19/12:30pm 21.2 16.5 5.1 35 8.0 NNW 19 32 10 17 1020.6 1020.6 0.0
19/12:00pm 20.2 15.5 5.1 37 7.4 WNW 19 32 10 17 1021.1 1021.1 0.0
19/11:30am 19.6 15.0 3.7 35 7.6 WNW 17 28 9 15 1021.4 1021.4 0.0
19/11:00am 18.6 14.4 3.6 37 7.0 WNW 15 26 8 14 1022.0 1022.0 0.0
19/10:30am 18.2 13.1 3.3 37 7.0 N 19 26 10 14 1022.4 1022.4 0.0
19/10:00am 17.9 13.8 4.1 40 6.5 NNW 15 24 8 13 1023.1 1023.1 0.0
19/09:30am 16.8 13.1 4.5 44 5.8 NW 13 20 7 11 1023.6 1023.6 0.0
19/09:00am 16.4 12.8 4.8 46 5.5 NW 13 22 7 12 1024.1 1024.1 0.2
19/08:30am 15.3 12.5 6.8 57 4.2 NNW 11 19 6 10 1024.2 1024.2 0.2
19/08:00am 14.3 11.8 8.3 67 3.0 NNW 11 17 6 9 1024.0 1024.0 0.2
19/07:30am 11.8 11.6 9.0 83 1.4 CALM 0 0 0 0 1024.0 1024.0 0.2
19/07:00am 9.2 8.8 8.4 95 0.4 CALM 0 0 0 0 1023.7 1023.7 0.2
19/06:30am 6.1 4.0 5.8 98 0.1 WSW 6 11 3 6 1023.6 1023.6 0.2
19/06:00am 5.2 4.1 4.9 98 0.1 CALM 0 0 0 0 1023.3 1023.3 0.2
19/05:30am 5.5 4.4 5.1 97 0.2 CALM 0 0 0 0 1023.2 1023.2 0.2
19/05:00am 6.7 5.8 6.0 95 0.3 CALM 0 0 0 0 1022.8 1022.8 0.2
19/04:30am 7.8 5.7 6.7 93 0.5 NE 7 9 4 5 1022.4 1022.4 0.2
19/04:00am 8.3 7.3 5.8 84 1.1 CALM 0 0 0 0 1022.1 1022.1 0.2
19/03:30am 9.9 8.8 6.8 81 1.5 NNW 2 7 1 4 1021.8 1021.8 0.2
19/03:00am 13.0 9.1 7.0 67 2.9 WSW 17 22 9 12 1021.6 1021.6 0.2
19/02:30am 12.3 9.6 8.8 79 1.8 WSW 13 17 7 9 1021.9 1021.9 0.2
19/02:00am 13.5 11.1 8.6 72 2.5 SW 11 20 6 11 1022.1 1022.1 0.2
19/01:30am 13.1 10.9 9.2 77 2.0 SW 11 19 6 10 1021.9 1021.9 0.2
19/01:00am 12.8 10.2 9.3 79 1.8 SW 13 17 7 9 1021.7 1021.7 0.2
19/12:30am 12.1 10.3 10.8 92 0.7 WSW 11 15 6 8 1021.7 1021.7 0.2
19/12:00am 12.4 11.5 11.5 94 0.5 WSW 7 9 4 5 1021.7 1021.7 0.2
 
Date/Time
EST
Temp
°C
App
Temp
°C
Dew
Point
°C
Rel
Hum
%
Delta-T
°C
Wind Press
QNH
hPa
Press
MSL
hPa
Rain since
9am
mm
Dir  Spd
km/h
Gust
km/h
Spd
kts
Gust
kts
18/11:30pm 13.8 12.3 11.8 88 1.1 WNW 11 19 6 10 1021.3 1021.3 0.2
18/11:00pm 14.2 12.5 12.4 89 1.0 NW 13 20 7 11 1020.8 1020.8 0.2
18/10:30pm 14.4 13.1 12.4 88 1.1 NW 11 15 6 8 1020.6 1020.6 0.2
18/10:00pm 14.9 12.5 12.8 87 1.2 NNW 17 24 9 13 1020.3 1020.3 0.2
18/09:30pm 15.1 13.6 13.0 87 1.2 NNW 13 22 7 12 1020.1 1020.1 0.2
18/09:00pm 15.6 14.2 13.3 86 1.3 NNW 13 19 7 10 1019.8 1019.8 0.2
18/08:30pm 16.2 14.5 13.7 85 1.4 NW 15 19 8 10 1019.9 1019.9 0.2
18/08:00pm 16.6 15.2 14.4 87 1.3 NW 15 22 8 12 1019.3 1019.2 0.2
18/07:30pm 16.8 16.0 15.0 89 1.0 NW 13 22 7 12 1018.4 1018.3 0.2
18/07:00pm 17.4 17.1 15.4 88 1.2 NW 11 17 6 9 1017.7 1017.6 0.2
18/06:30pm 17.6 16.9 15.4 87 1.3 NW 13 20 7 11 1017.0 1016.9 0.0
18/06:00pm 18.9 18.1 15.0 78 2.3 WNW 13 22 7 12 1016.5 1016.4 0.0
18/05:30pm 19.6 17.5 14.8 74 2.8 NW 19 30 10 16 1015.8 1015.7 0.0
18/05:00pm 20.3 17.6 14.7 70 3.3 NW 22 35 12 19 1015.3 1015.2 0.0
18/04:30pm 21.4 17.8 13.1 59 4.8 NW 24 43 13 23 1014.9 1014.8 0.0
18/04:01pm 23.5 18.6 11.2 46 6.9 NW 28 46 15 25 1014.2 1014.1 0.0
18/04:00pm 23.6 19.1 11.3 46 6.9 NW 26 46 14 25 1014.2 1014.1 0.0
18/03:30pm 23.8 18.9 11.2 45 7.1 NW 28 48 15 26 1013.9 1013.8 0.0
18/03:00pm 24.0 18.1 10.3 42 7.6 WNW 32 50 17 27 1013.2 1013.1 0.0
18/02:30pm 24.9 18.8 9.6 38 8.4 WNW 32 50 17 27 1012.7 1012.7 0.0
18/02:00pm 26.0 20.1 8.9 34 9.3 NW 30 48 16 26 1012.2 1012.2 0.0
18/01:37pm 26.8 21.2 8.7 32 9.9 NW 28 46 15 25 1011.9 1011.9 0.0
18/01:30pm 26.9 21.4 9.3 33 9.7 NW 28 44 15 24 1011.8 1011.8 0.0
18/01:00pm 26.3 20.7 8.8 33 9.5 NW 28 46 15 25 1011.7 1011.7 0.0
18/12:30pm 27.1 20.5 8.5 31 10.1 NW 33 52 18 28 1012.1 1012.1 0.0

Other formats

Comma delimited format used in spreadsheet applications
http://www.bom.gov.au/fwo/IDN60801/IDN60801.95771.axf

JavaScript Object Notation format (JSON) in row-major order
http://www.bom.gov.au/fwo/IDN60801/IDN60801.95771.json

Data quality

Most of these data are generated automatically and are frequently updated. Quality checks on data are not normally performed. It is possible for incorrect values to appear. Refer to information at About Latest Weather Observations and please check the disclaimer before using these data.